Time;durP1;ratioP1;P1;durP2;ratioP2;P2;SDS_P1;SDS_P2;PMS_P1;PMS_P2;Temp;Humidity;BMP_temperature;BMP_pressure;BME280_temperature;BME280_humidity;BME280_pressure;Samples;Min_cycle;Max_cycle;Signal;HPM_P1;HPM_P2
2021/06/17 00:02:13;;;;;;;8.65;4.32;;;;;;;21.87;79.32;99897.47;4899493;29;20088;-83
2021/06/17 00:04:39;;;;;;;10.73;4.40;;;;;;;22.02;77.94;99895.56;4900008;29;20476;-84
2021/06/17 00:07:05;;;;;;;11.18;4.30;;;;;;;22.06;77.39;99896.00;4918130;29;20469;-84
2021/06/17 00:09:30;;;;;;;9.57;4.78;;;;;;;22.08;79.75;99902.81;4918423;29;20028;-84
2021/06/17 00:12:01;;;;;;;8.75;5.10;;;;;;;22.03;77.35;99891.06;4918366;29;20104;-84
2021/06/17 00:14:32;;;;;;;9.10;5.13;;;;;;;22.11;77.32;99888.25;4916771;29;20044;-84
2021/06/17 00:16:59;;;;;;;9.85;5.35;;;;;;;22.04;77.40;99884.66;4912422;29;20096;-83
2021/06/17 00:19:26;;;;;;;8.65;5.57;;;;;;;22.02;78.10;99884.88;4899179;29;20388;-84
2021/06/17 00:21:51;;;;;;;9.77;5.82;;;;;;;22.00;77.11;99886.91;4899162;29;20531;-83
2021/06/17 00:24:17;;;;;;;7.57;5.43;;;;;;;21.81;78.01;99880.34;4899160;29;20028;-84
2021/06/17 00:26:43;;;;;;;10.50;5.90;;;;;;;21.79;78.43;99875.19;4900017;29;20032;-83
2021/06/17 00:29:09;;;;;;;8.23;5.93;;;;;;;21.69;78.58;99888.03;4899052;29;20080;-83
2021/06/17 00:31:34;;;;;;;8.63;5.20;;;;;;;21.72;79.00;99900.19;4897709;29;20072;-83
2021/06/17 00:33:59;;;;;;;8.90;5.50;;;;;;;21.65;79.23;99894.78;4899101;29;20024;-83
2021/06/17 00:36:25;;;;;;;9.20;5.60;;;;;;;21.80;78.15;99902.75;4898942;29;20029;-84
2021/06/17 00:38:50;;;;;;;14.52;7.47;;;;;;;21.73;79.94;99897.34;4898930;29;20036;-83
2021/06/17 00:41:16;;;;;;;9.48;5.88;;;;;;;21.82;79.37;99887.38;4907772;29;20079;-83
2021/06/17 00:43:41;;;;;;;10.90;6.38;;;;;;;21.75;79.07;99878.44;4917632;29;20059;-83
2021/06/17 00:46:06;;;;;;;9.45;5.45;;;;;;;21.75;78.80;99868.56;4917634;29;20024;-83
2021/06/17 00:48:32;;;;;;;10.23;7.20;;;;;;;21.56;79.43;99863.84;4917581;29;20036;-83
2021/06/17 00:51:01;;;;;;;9.13;6.13;;;;;;;21.55;80.15;99852.34;4917483;29;20028;-83
2021/06/17 00:53:30;;;;;;;15.50;8.05;;;;;;;21.51;80.17;99850.25;4917662;29;20235;-84
2021/06/17 00:55:56;;;;;;;10.95;6.72;;;;;;;21.64;78.88;99850.38;4908670;29;20100;-84
2021/06/17 00:58:22;;;;;;;13.02;7.40;;;;;;;21.65;79.39;99851.22;4898558;29;20046;-83
2021/06/17 01:00:48;;;;;;;12.63;6.85;;;;;;;21.64;79.92;99849.56;4898394;29;20383;-84
2021/06/17 01:03:13;;;;;;;9.95;6.47;;;;;;;21.69;79.48;99841.81;4898346;29;20555;-83
2021/06/17 01:05:40;;;;;;;11.77;6.75;;;;;;;21.72;77.64;99854.75;4898444;29;20365;-83
2021/06/17 01:08:21;;;;;;;12.88;8.02;;;;;;;21.74;79.49;99861.59;4898411;29;20067;-83
2021/06/17 01:11:09;;;;;;;14.32;6.68;;;;;;;21.44;79.42;99860.03;4907273;29;20032;-84
2021/06/17 01:13:57;;;;;;;11.70;6.28;;;;;;;21.56;78.13;99867.38;4917304;29;20051;-83
2021/06/17 01:16:47;;;;;;;11.55;6.32;;;;;;;21.45;80.90;99875.88;4917135;29;20024;-84
2021/06/17 01:19:31;;;;;;;10.68;5.40;;;;;;;21.53;78.59;99885.63;4916295;29;20156;-84
2021/06/17 01:22:11;;;;;;;11.77;6.00;;;;;;;21.46;79.74;99868.69;4916961;29;20028;-84
2021/06/17 01:24:42;;;;;;;11.63;5.90;;;;;;;21.08;80.07;99848.28;4916325;29;20157;-83
2021/06/17 01:27:17;;;;;;;11.48;6.00;;;;;;;21.19;82.01;99853.16;4905198;29;20028;-83
2021/06/17 01:29:47;;;;;;;14.93;5.68;;;;;;;21.20;80.94;99851.31;4928426;29;20028;-84
2021/06/17 01:32:14;;;;;;;11.82;5.93;;;;;;;21.31;81.02;99844.66;4928176;29;20017;-83
2021/06/17 01:34:40;;;;;;;13.07;5.35;;;;;;;21.14;81.56;99857.38;4897859;29;20029;-83
2021/06/17 01:37:11;;;;;;;14.88;6.85;;;;;;;21.16;82.21;99864.19;4897994;29;20034;-83
2021/06/17 01:39:39;;;;;;;13.07;6.40;;;;;;;21.26;80.75;99861.22;4897953;29;20028;-83
2021/06/17 01:42:07;;;;;;;15.70;6.78;;;;;;;21.26;81.00;99866.56;4905812;29;20032;-83
2021/06/17 01:44:34;;;;;;;10.10;5.20;;;;;;;21.27;80.47;99860.22;4916588;29;20028;-83
2021/06/17 01:47:02;;;;;;;13.00;5.90;;;;;;;21.15;81.51;99856.38;4916338;29;20032;-83
2021/06/17 01:49:28;;;;;;;11.55;6.72;;;;;;;21.09;81.47;99846.44;4916387;29;20505;-83
2021/06/17 01:51:55;;;;;;;10.88;5.80;;;;;;;21.09;81.38;99849.09;4916706;29;20028;-83
2021/06/17 01:54:21;;;;;;;9.10;5.15;;;;;;;21.15;81.21;99845.72;4916483;29;20042;-83
2021/06/17 01:56:53;;;;;;;8.73;5.65;;;;;;;21.13;80.16;99843.22;4908325;29;20119;-83
2021/06/17 01:59:19;;;;;;;;;;;;;;;21.07;81.75;99851.13;4897817;29;20029;-83
2021/06/17 02:01:45;;;;;;;11.02;7.05;;;;;;;20.96;82.75;99853.25;4897533;29;19963;-83
2021/06/17 02:04:11;;;;;;;11.85;7.55;;;;;;;20.82;82.69;99845.28;4897401;29;20044;-83
2021/06/17 02:06:37;;;;;;;15.20;7.45;;;;;;;20.79;83.98;99843.78;4897429;29;20032;-83
2021/06/17 02:09:05;;;;;;;9.38;7.03;;;;;;;20.93;83.08;99844.78;4897225;29;20029;-83
2021/06/17 02:11:32;;;;;;;19.08;8.15;;;;;;;20.80;83.92;99848.13;4904450;29;20040;-83
2021/06/17 02:13:59;;;;;;;11.63;6.80;;;;;;;20.90;83.91;99847.84;4914283;29;20364;-83
2021/06/17 02:16:27;;;;;;;11.63;7.65;;;;;;;20.86;83.97;99843.91;4916154;29;20031;-83
2021/06/17 02:18:54;;;;;;;9.10;7.05;;;;;;;20.98;83.79;99845.91;4916048;29;20024;-84
2021/06/17 02:21:20;;;;;;;10.80;7.32;;;;;;;21.00;83.51;99841.19;4915938;29;20091;-83
2021/06/17 02:23:53;;;;;;;10.75;7.53;;;;;;;21.10;82.06;99858.78;4916179;29;20034;-83
2021/06/17 02:26:20;;;;;;;17.92;10.32;;;;;;;20.96;82.81;99853.25;4916041;29;20031;-83
2021/06/17 02:28:47;;;;;;;12.57;9.27;;;;;;;21.03;83.82;99864.03;4904033;29;20047;-83
2021/06/17 02:31:17;;;;;;;13.60;9.27;;;;;;;20.93;84.09;99869.66;4911110;29;20037;-84
2021/06/17 02:33:42;;;;;;;12.80;9.07;;;;;;;21.00;82.85;99875.06;4915654;29;20051;-83
2021/06/17 02:36:12;;;;;;;15.70;10.07;;;;;;;20.86;84.26;99892.75;4915876;29;20052;-83
2021/06/17 02:38:40;;;;;;;16.52;9.85;;;;;;;20.91;83.37;99898.38;4915843;29;20111;-83
2021/06/17 02:41:10;;;;;;;13.02;10.45;;;;;;;20.88;84.63;99892.56;4915628;29;20032;-83
2021/06/17 02:43:40;;;;;;;18.48;12.40;;;;;;;20.79;86.07;99879.31;4915849;29;20032;-83
2021/06/17 02:46:06;;;;;;;19.27;11.70;;;;;;;20.87;85.29;99880.22;4899175;29;20033;-83
2021/06/17 02:48:32;;;;;;;16.92;12.10;;;;;;;20.93;85.06;99875.00;4895394;29;20404;-83
2021/06/17 02:50:58;;;;;;;16.63;12.55;;;;;;;20.93;83.40;99880.34;4896856;29;20060;-83
2021/06/17 02:53:24;;;;;;;19.63;12.32;;;;;;;20.94;84.30;99876.63;4896602;29;20510;-83
2021/06/17 02:55:50;;;;;;;16.83;12.32;;;;;;;21.00;83.33;99880.41;4896661;29;20068;-83
2021/06/17 02:59:07;;;;;;;15.43;12.48;;;;;;;21.14;83.29;99887.56;4896789;29;20017;-83
2021/06/17 03:02:11;;;;;;;18.45;14.13;;;;;;;21.18;82.66;99886.19;4885069;29;20104;-83
2021/06/17 03:04:52;;;;;;;17.25;13.25;;;;;;;21.10;82.15;99882.78;4896635;29;20032;-83
2021/06/17 03:07:26;;;;;;;17.10;13.60;;;;;;;21.11;82.83;99881.78;4896616;29;20036;-83
2021/06/17 03:09:56;;;;;;;17.05;13.15;;;;;;;21.10;82.74;99880.13;4895371;29;20032;-83
2021/06/17 03:12:25;;;;;;;17.60;13.32;;;;;;;21.09;82.42;99879.31;4896338;29;20032;-83
2021/06/17 03:14:51;;;;;;;18.25;13.00;;;;;;;21.07;81.57;99891.16;4901764;29;20052;-83
2021/06/17 03:17:20;;;;;;;17.30;13.73;;;;;;;21.11;82.46;99903.97;4896595;29;20112;-83
2021/06/17 03:19:49;;;;;;;25.58;14.73;;;;;;;21.06;83.11;99898.34;4896435;29;20033;-83
2021/06/17 03:22:16;;;;;;;21.25;15.20;;;;;;;21.05;84.19;99888.69;4896459;29;20032;-84
2021/06/17 03:24:45;;;;;;;20.95;14.15;;;;;;;21.08;83.25;99892.84;4896533;29;20028;-83
2021/06/17 03:27:11;;;;;;;18.95;14.20;;;;;;;21.02;83.09;99893.56;4896301;29;20399;-83
2021/06/17 03:29:43;;;;;;;20.20;14.38;;;;;;;21.11;83.65;99897.78;4900929;29;20087;-83
2021/06/17 03:32:11;;;;;;;22.35;15.15;;;;;;;21.16;83.48;99890.88;4915206;29;20475;-83
2021/06/17 03:34:39;;;;;;;22.65;15.55;;;;;;;21.14;84.10;99886.75;4915387;29;20091;-84
2021/06/17 03:37:06;;;;;;;20.88;15.50;;;;;;;21.07;83.67;99893.84;4915205;29;20036;-83
2021/06/17 03:39:32;;;;;;;20.75;14.52;;;;;;;21.06;83.79;99884.19;4913943;29;20052;-83
2021/06/17 03:42:00;;;;;;;19.17;13.75;;;;;;;21.08;83.61;99885.66;4915569;29;20097;-83
2021/06/17 03:44:29;;;;;;;24.92;16.17;;;;;;;21.01;84.03;99887.41;4913279;29;20025;-83
2021/06/17 03:46:56;;;;;;;25.13;17.25;;;;;;;20.78;85.36;99882.16;4908574;29;20072;-83
2021/06/17 03:49:23;;;;;;;25.63;16.42;;;;;;;20.86;84.85;99883.91;4918667;29;20028;-83
2021/06/17 03:51:50;;;;;;;27.27;17.55;;;;;;;20.83;84.13;99884.28;4918611;29;20490;-83
2021/06/17 03:54:23;;;;;;;25.70;17.45;;;;;;;20.85;85.41;99888.41;4918639;29;20111;-83
2021/06/17 03:57:01;;;;;;;23.42;16.95;;;;;;;20.98;84.95;99885.94;4918551;29;20087;-83
2021/06/17 03:59:31;;;;;;;23.75;17.13;;;;;;;20.95;84.60;99888.97;4918513;29;20084;-83
2021/06/17 04:01:57;;;;;;;26.17;18.45;;;;;;;20.87;84.86;99882.88;4903440;29;20115;-83
2021/06/17 04:04:23;;;;;;;27.33;18.42;;;;;;;20.74;84.29;99870.22;4899462;29;20021;-83
2021/06/17 04:06:52;;;;;;;29.95;19.30;;;;;;;20.75;85.34;99856.69;4899339;29;20547;-83
2021/06/17 04:09:27;;;;;;;26.08;18.27;;;;;;;20.91;83.64;99860.16;4905531;29;20111;-83
2021/06/17 04:12:07;;;;;;;27.25;18.55;;;;;;;20.94;82.90;99871.31;4918229;29;20034;-83
2021/06/17 04:14:35;;;;;;;29.15;19.33;;;;;;;20.65;85.10;99868.63;4918247;29;20097;-83
2021/06/17 04:17:03;;;;;;;27.77;18.38;;;;;;;20.69;83.65;99861.91;4918160;29;20530;-83
2021/06/17 04:19:31;;;;;;;27.40;18.20;;;;;;;20.76;85.08;99854.84;4918261;29;20020;-83
2021/06/17 04:22:07;;;;;;;25.52;17.75;;;;;;;20.82;85.23;99854.09;4901682;29;20389;-83
2021/06/17 04:24:38;;;;;;;31.00;19.42;;;;;;;20.70;84.95;99861.75;4899319;29;20059;-83
2021/06/17 04:27:05;;;;;;;24.63;17.33;;;;;;;20.80;83.34;99866.81;4899007;29;20127;-83
2021/06/17 04:29:35;;;;;;;27.02;18.38;;;;;;;20.73;84.13;99864.03;4898927;29;20444;-83
2021/06/17 04:32:02;;;;;;;27.27;18.67;;;;;;;20.65;84.74;99879.28;4898886;29;20072;-83
2021/06/17 04:34:28;;;;;;;29.65;19.27;;;;;;;20.71;84.29;99881.22;4898909;29;20487;-83
2021/06/17 04:36:53;;;;;;;31.33;20.05;;;;;;;20.77;84.65;99880.50;4899083;29;20043;-83
2021/06/17 04:39:20;;;;;;;31.33;19.08;;;;;;;20.66;85.63;99878.31;4899024;29;20036;-83
2021/06/17 04:41:46;;;;;;;26.60;18.40;;;;;;;20.62;85.01;99879.66;4898839;29;20111;-83
2021/06/17 04:44:11;;;;;;;26.38;19.20;;;;;;;20.55;83.57;99880.34;4898714;29;20474;-83
2021/06/17 04:46:39;;;;;;;30.52;19.65;;;;;;;20.59;85.05;99880.84;4898747;29;20032;-83
2021/06/17 04:49:12;;;;;;;26.58;17.88;;;;;;;20.58;86.34;99877.34;4898816;29;20033;-83
2021/06/17 04:51:37;;;;;;;23.02;14.95;;;;;;;20.42;87.45;99869.50;4915571;29;20039;-83
2021/06/17 04:54:06;;;;;;;14.25;11.65;;;;;;;20.53;85.64;99862.88;4916642;29;20024;-83
2021/06/17 04:56:31;;;;;;;12.32;11.02;;;;;;;20.43;86.58;99862.31;4917534;29;20045;-83
2021/06/17 04:58:57;;;;;;;11.75;9.95;;;;;;;20.63;86.11;99873.31;4917803;29;20036;-83
2021/06/17 05:01:22;;;;;;;12.23;9.85;;;;;;;20.65;84.77;99874.78;4917269;29;20032;-83
2021/06/17 05:03:48;;;;;;;13.35;10.35;;;;;;;20.73;83.82;99872.03;4917454;29;20479;-83
2021/06/17 05:06:17;;;;;;;13.63;11.57;;;;;;;20.58;84.53;99861.34;4902904;29;20044;-83
2021/06/17 05:11:26;;;;;;;12.05;10.73;;;;;;;20.72;83.31;99872.22;4898224;29;20032;-83
2021/06/17 05:13:52;;;;;;;13.13;9.60;;;;;;;20.76;83.61;99862.84;4898571;29;20033;-83
2021/06/17 05:16:18;;;;;;;12.63;10.52;;;;;;;20.87;82.27;99867.69;4898427;29;20033;-83
2021/06/17 05:18:43;;;;;;;13.05;10.40;;;;;;;20.88;82.53;99880.03;4898207;29;20033;-83
2021/06/17 05:21:09;;;;;;;12.75;10.75;;;;;;;20.87;83.44;99885.56;4917292;29;20028;-84
2021/06/17 05:23:38;;;;;;;11.95;9.00;;;;;;;21.00;82.38;99885.75;4916813;29;20055;-84
2021/06/17 05:26:03;;;;;;;10.07;9.13;;;;;;;20.90;81.94;99883.34;4907399;29;20498;-84
2021/06/17 05:28:29;;;;;;;11.10;9.25;;;;;;;20.94;82.61;99889.16;4903780;29;20028;-84
2021/06/17 05:30:58;;;;;;;11.57;10.40;;;;;;;20.78;82.89;99890.16;4916686;29;20119;-84
2021/06/17 05:33:24;;;;;;;10.25;8.63;;;;;;;20.83;83.09;99885.09;4911691;29;20427;-84
2021/06/17 05:35:49;;;;;;;10.27;8.98;;;;;;;20.94;81.79;99897.16;4917072;29;20035;-84
2021/06/17 05:38:20;;;;;;;10.13;9.13;;;;;;;20.93;82.23;99904.34;4912117;29;20036;-84
2021/06/17 05:40:46;;;;;;;8.43;7.60;;;;;;;20.87;80.87;99914.91;4898318;29;20056;-84
2021/06/17 05:43:11;;;;;;;9.05;6.88;;;;;;;20.88;81.37;99922.75;4897627;29;20093;-84
2021/06/17 05:45:37;;;;;;;7.20;6.40;;;;;;;20.92;79.67;99921.34;4900269;29;20020;-84
2021/06/17 05:48:03;;;;;;;8.63;6.35;;;;;;;20.99;79.70;99926.78;4906426;29;20096;-84
2021/06/17 05:50:28;;;;;;;5.90;5.30;;;;;;;21.00;78.98;99929.28;4899994;29;20077;-84
2021/06/17 05:52:53;;;;;;;5.82;5.32;;;;;;;21.19;76.34;99929.75;4898529;29;20027;-84
2021/06/17 05:55:19;;;;;;;8.02;6.22;;;;;;;21.07;78.08;99939.22;4909908;29;20060;-84
2021/06/17 05:57:44;;;;;;;5.88;5.00;;;;;;;21.31;77.39;99948.81;4912224;29;20036;-84
2021/06/17 06:00:10;;;;;;;9.93;5.15;;;;;;;21.13;77.21;99955.34;4924525;29;20040;-86
2021/06/17 06:02:36;;;;;;;5.70;5.18;;;;;;;21.19;76.96;99951.09;4906188;29;20051;-87
2021/06/17 06:05:03;;;;;;;6.05;5.45;;;;;;;21.30;77.32;99953.28;4911677;29;20047;-87
2021/06/17 06:07:28;;;;;;;5.85;5.22;;;;;;;21.28;76.44;99955.31;4905694;29;20036;-87
2021/06/17 06:09:54;;;;;;;5.95;5.35;;;;;;;21.43;76.88;99965.19;4918842;29;20039;-84
2021/06/17 06:12:19;;;;;;;7.43;5.85;;;;;;;21.39;74.92;99970.88;4928993;29;20028;-84
2021/06/17 06:14:44;;;;;;;8.65;7.00;;;;;;;21.39;77.75;99981.56;4908811;29;20043;-84
2021/06/17 06:17:10;;;;;;;16.70;10.65;;;;;;;21.34;78.15;99972.44;4911519;29;20032;-84
2021/06/17 06:19:36;;;;;;;14.80;9.65;;;;;;;21.30;76.79;99974.66;4912561;29;20024;-89
2021/06/17 06:22:06;;;;;;;15.18;9.40;;;;;;;21.22;78.25;99977.41;4901224;29;20028;-83
2021/06/17 06:24:36;;;;;;;9.35;6.53;;;;;;;21.38;77.44;99985.22;4902990;29;20483;-83
2021/06/17 06:27:03;;;;;;;7.80;5.57;;;;;;;21.25;77.96;99995.75;4915254;29;20044;-83
2021/06/17 06:29:29;;;;;;;5.43;4.93;;;;;;;21.25;77.77;99990.41;4914876;29;20040;-83
2021/06/17 06:31:56;;;;;;;6.53;5.57;;;;;;;21.26;78.97;100008.06;4903693;29;20024;-83
2021/06/17 06:34:22;;;;;;;6.22;5.65;;;;;;;21.27;78.31;100009.75;4895265;29;20055;-83
2021/06/17 06:36:47;;;;;;;5.28;4.78;;;;;;;21.31;78.28;100016.38;4900250;29;20056;-84
2021/06/17 06:39:12;;;;;;;7.82;6.00;;;;;;;21.24;79.21;100007.44;4902973;29;20108;-84
2021/06/17 06:41:40;;;;;;;8.02;6.20;;;;;;;21.27;78.11;100015.09;4897918;29;20036;-84
2021/06/17 06:44:05;;;;;;;6.90;6.20;;;;;;;21.20;79.04;100020.31;4904352;29;20059;-84
2021/06/17 06:46:31;;;;;;;6.93;5.50;;;;;;;21.27;78.16;100020.44;4910755;29;20032;-84
2021/06/17 06:48:57;;;;;;;6.90;6.15;;;;;;;21.28;77.99;100032.75;4916428;29;20036;-83
2021/06/17 06:51:23;;;;;;;6.53;5.53;;;;;;;21.29;77.78;100029.09;4910678;29;20111;-83
2021/06/17 06:53:49;;;;;;;7.28;5.53;;;;;;;21.36;78.13;100030.00;4902526;29;20180;-83
2021/06/17 06:56:15;;;;;;;9.15;5.55;;;;;;;21.34;76.56;100026.69;4898898;29;20039;-83
2021/06/17 06:58:40;;;;;;;5.70;4.68;;;;;;;21.30;75.19;100013.88;4912394;29;20451;-86
2021/06/17 07:01:06;;;;;;;4.95;4.30;;;;;;;21.39;75.89;100013.59;4898815;29;20043;-83
2021/06/17 07:03:31;;;;;;;5.07;4.50;;;;;;;21.38;76.27;100011.13;4904741;29;20487;-83
2021/06/17 07:05:56;;;;;;;8.95;5.13;;;;;;;21.32;76.11;100003.84;4902380;29;20040;-83
2021/06/17 07:08:22;;;;;;;6.15;5.10;;;;;;;21.40;75.55;100003.75;4906612;29;20307;-83
2021/06/17 07:10:48;;;;;;;5.07;4.25;;;;;;;21.47;74.42;100001.22;4914449;29;20479;-83
2021/06/17 07:13:15;;;;;;;8.65;4.90;;;;;;;21.52;74.98;100002.28;4905614;29;20040;-82
2021/06/17 07:15:42;;;;;;;6.35;5.65;;;;;;;21.62;75.79;100007.34;4896501;29;20028;-83
2021/06/17 07:18:08;;;;;;;5.75;5.13;;;;;;;21.53;74.54;100001.28;4902289;29;20029;-86
2021/06/17 07:20:33;;;;;;;5.72;4.75;;;;;;;21.55;73.15;100003.78;4904735;29;20114;-87
2021/06/17 07:22:58;;;;;;;5.90;5.10;;;;;;;21.49;74.47;100009.88;4898606;29;20047;-86
2021/06/17 07:25:25;;;;;;;6.47;5.60;;;;;;;21.46;74.14;99997.69;4906306;29;20103;-87
2021/06/17 07:27:51;;;;;;;5.90;5.15;;;;;;;21.81;74.07;99989.09;4918644;29;20043;-87
2021/06/17 07:30:17;;;;;;;6.22;4.47;;;;;;;22.77;71.61;99989.66;4918632;29;20024;-87
2021/06/17 07:32:44;;;;;;;11.38;5.07;;;;;;;23.02;69.06;99989.19;4916456;29;20398;-87
2021/06/17 07:35:10;;;;;;;4.43;3.97;;;;;;;23.35;67.08;99997.47;4906651;29;20020;-87
2021/06/17 07:37:35;;;;;;;8.52;5.25;;;;;;;23.25;67.24;100003.19;4931870;29;20079;-87
2021/06/17 07:40:01;;;;;;;5.40;4.60;;;;;;;23.50;66.16;100011.56;4937979;28;20074;-87
2021/06/17 07:42:26;;;;;;;5.60;4.90;;;;;;;23.51;65.09;100015.06;4937666;29;20387;-87
2021/06/17 07:44:52;;;;;;;12.02;4.75;;;;;;;23.57;63.33;100027.69;4925187;29;20079;-87
2021/06/17 07:47:18;;;;;;;6.40;4.95;;;;;;;23.59;64.29;100022.13;4918196;29;20040;-87
2021/06/17 07:49:43;;;;;;;8.07;4.90;;;;;;;23.52;64.33;100028.28;4908595;29;20036;-87
2021/06/17 07:52:09;;;;;;;10.75;5.68;;;;;;;23.41;64.95;100036.88;4899699;29;20035;-87
2021/06/17 07:54:34;;;;;;;8.57;5.72;;;;;;;23.43;65.72;100042.03;4900482;29;20033;-87
2021/06/17 07:57:00;;;;;;;4.00;3.60;;;;;;;23.54;64.64;100038.81;4899698;29;20391;-87
2021/06/17 07:59:27;;;;;;;8.98;4.57;;;;;;;23.49;64.79;100042.06;4906133;29;20103;-87
2021/06/17 08:01:52;;;;;;;4.95;4.45;;;;;;;23.17;66.47;100035.47;4901199;29;20476;-87
2021/06/17 08:04:19;;;;;;;6.28;4.78;;;;;;;23.19;64.09;100038.78;4904807;29;20040;-87
2021/06/17 08:06:44;;;;;;;6.72;4.63;;;;;;;22.73;68.48;100041.91;4918250;29;20060;-87
2021/06/17 08:09:10;;;;;;;6.97;5.07;;;;;;;22.81;67.17;100043.59;4916754;29;20036;-87
2021/06/17 08:11:37;;;;;;;5.88;4.72;;;;;;;22.73;67.43;100050.78;4918200;29;20024;-87
2021/06/17 08:14:03;;;;;;;5.28;4.40;;;;;;;22.64;67.58;100046.56;4913123;29;20033;-87
2021/06/17 08:16:28;;;;;;;8.95;4.82;;;;;;;22.69;69.30;100045.97;4915477;29;20360;-86
2021/06/17 08:18:54;;;;;;;9.32;4.75;;;;;;;22.65;69.20;100050.06;4912352;29;20372;-87
2021/06/17 08:21:22;;;;;;;8.40;4.95;;;;;;;22.53;69.22;100050.59;4907431;29;20051;-87
2021/06/17 08:23:47;;;;;;;5.70;4.72;;;;;;;22.33;68.89;100052.22;4899359;29;20031;-87
2021/06/17 08:26:13;;;;;;;7.13;5.25;;;;;;;22.41;69.93;100054.75;4900978;29;20119;-87
2021/06/17 08:28:38;;;;;;;8.65;4.85;;;;;;;22.65;69.12;100050.06;4898036;29;20032;-87
2021/06/17 08:31:04;;;;;;;5.35;4.68;;;;;;;22.76;68.68;100057.56;4905277;29;20031;-87
2021/06/17 08:33:33;;;;;;;5.88;4.82;;;;;;;22.95;66.92;100053.41;4901243;29;20333;-87
2021/06/17 08:36:02;;;;;;;6.32;5.45;;;;;;;22.89;68.02;100051.53;4916668;29;20052;-87
2021/06/17 08:38:27;;;;;;;7.05;4.65;;;;;;;22.97;67.07;100052.19;4899898;29;20266;-87
2021/06/17 08:40:54;;;;;;;7.25;4.88;;;;;;;23.03;66.84;100055.97;4910294;29;20032;-87
2021/06/17 08:43:19;;;;;;;6.43;4.65;;;;;;;22.92;66.23;100059.97;4917579;29;20076;-88
2021/06/17 08:45:45;;;;;;;7.20;5.05;;;;;;;23.08;64.81;100061.56;4899795;29;20029;-87
2021/06/17 08:48:10;;;;;;;7.10;4.60;;;;;;;23.01;64.97;100058.00;4898592;29;20036;-88
2021/06/17 08:50:36;;;;;;;7.53;5.28;;;;;;;23.04;65.02;100056.81;4912431;29;20087;-87
2021/06/17 08:53:02;;;;;;;5.68;4.97;;;;;;;23.12;65.85;100056.66;4913923;29;20032;-87
2021/06/17 08:55:29;;;;;;;8.10;5.38;;;;;;;22.96;66.47;100053.19;4912211;29;20479;-87
2021/06/17 08:57:56;;;;;;;5.97;5.15;;;;;;;23.10;66.72;100048.00;4901548;29;20035;-87
2021/06/17 09:00:21;;;;;;;9.35;5.43;;;;;;;23.04;65.87;100048.78;4901871;29;20033;-88
2021/06/17 09:03:00;;;;;;;9.32;5.18;;;;;;;23.19;66.71;100044.16;4896866;29;20037;-86
2021/06/17 09:05:26;;;;;;;7.85;5.63;;;;;;;23.14;66.64;100047.44;4898971;29;20036;-86
2021/06/17 09:07:52;;;;;;;5.80;5.18;;;;;;;23.28;65.94;100043.00;4903413;29;20111;-87
2021/06/17 09:10:18;;;;;;;5.10;4.38;;;;;;;23.63;65.99;100039.47;4898427;29;20400;-87
2021/06/17 09:13:03;;;;;;;5.47;4.35;;;;;;;24.01;63.89;100039.84;4902520;29;20032;-87
2021/06/17 09:15:38;;;;;;;6.22;4.63;;;;;;;24.12;62.48;100039.28;4911743;29;20032;-87
2021/06/17 09:18:24;;;;;;;6.22;4.10;;;;;;;24.67;61.71;100039.19;4898260;29;20020;-87
2021/06/17 09:20:50;;;;;;;5.55;4.15;;;;;;;24.86;60.56;100032.19;4904050;29;20028;-87
2021/06/17 09:23:34;;;;;;;10.38;4.30;;;;;;;24.98;60.44;100037.75;4914820;29;20031;-87
2021/06/17 09:26:05;;;;;;;7.78;4.90;;;;;;;24.93;60.29;100038.38;4904460;29;20027;-87
2021/06/17 09:28:57;;;;;;;9.25;4.90;;;;;;;24.85;59.19;100035.06;4897453;29;20080;-87
2021/06/17 09:31:33;;;;;;;9.25;4.32;;;;;;;24.72;59.35;100039.41;4906938;29;20094;-87
2021/06/17 09:34:00;;;;;;;4.78;3.83;;;;;;;24.77;58.75;100036.09;4900133;29;20088;-87
2021/06/17 09:36:31;;;;;;;7.32;4.97;;;;;;;24.73;59.22;100035.69;4902735;29;20039;-88
2021/06/17 09:39:03;;;;;;;9.85;4.85;;;;;;;24.65;59.65;100041.25;4913030;29;20080;-88
2021/06/17 09:41:37;;;;;;;23.25;5.80;;;;;;;24.70;58.46;100054.06;4906955;29;20039;-88
2021/06/17 09:44:04;;;;;;;10.25;5.47;;;;;;;24.75;58.76;100051.59;4913634;29;20035;-89
2021/06/17 09:46:30;;;;;;;9.63;4.30;;;;;;;25.06;59.05;100050.13;4916235;29;20063;-88
2021/06/17 09:49:04;;;;;;;10.10;4.40;;;;;;;24.85;58.70;100046.63;4911078;29;20064;-88
2021/06/17 09:51:34;;;;;;;9.18;4.50;;;;;;;24.75;58.11;100051.59;4916047;29;20129;-88
2021/06/17 09:54:06;;;;;;;7.35;4.95;;;;;;;24.67;58.49;100051.81;4910611;29;20031;-88
2021/06/17 09:56:34;;;;;;;7.10;4.43;;;;;;;24.47;58.86;100057.13;4900438;29;20056;-87
2021/06/17 09:59:00;;;;;;;8.20;5.10;;;;;;;24.76;58.26;100053.22;4914772;29;20024;-87
2021/06/17 10:01:36;;;;;;;8.95;5.00;;;;;;;24.88;57.83;100056.97;4915458;29;20079;-87
2021/06/17 10:04:07;;;;;;;13.75;4.80;;;;;;;25.16;58.29;100047.88;4914876;29;20427;-87
2021/06/17 10:06:40;;;;;;;11.90;4.68;;;;;;;25.35;57.38;100038.13;4909813;29;20100;-87
2021/06/17 10:09:08;;;;;;;6.13;3.72;;;;;;;26.15;54.67;100045.94;4900483;29;20119;-87
2021/06/17 10:11:34;;;;;;;7.15;3.70;;;;;;;26.36;53.86;100049.34;4916536;29;20035;-87
2021/06/17 10:14:00;;;;;;;7.28;3.55;;;;;;;26.88;52.39;100045.47;4915944;29;20028;-87
2021/06/17 10:16:26;;;;;;;9.30;4.13;;;;;;;26.39;53.41;100047.03;4916018;29;20039;-87
2021/06/17 10:18:52;;;;;;;5.55;3.53;;;;;;;26.94;50.83;100051.03;4914444;29;20052;-87
2021/06/17 10:21:17;;;;;;;5.85;3.25;;;;;;;27.13;51.14;100047.31;4909430;29;20032;-87
2021/06/17 10:23:47;;;;;;;4.68;3.65;;;;;;;27.25;50.90;100053.66;4897610;29;20468;-87
2021/06/17 10:26:14;;;;;;;5.85;3.83;;;;;;;27.35;50.17;100055.84;4915864;29;20027;-87
2021/06/17 10:28:46;;;;;;;4.93;4.07;;;;;;;27.35;49.26;100057.69;4915605;29;20399;-87
2021/06/17 10:31:14;;;;;;;4.55;2.95;;;;;;;27.94;49.75;100048.13;4915763;29;20510;-87
2021/06/17 10:33:40;;;;;;;6.95;4.07;;;;;;;28.00;48.96;100047.25;4915554;29;20028;-87
2021/06/17 10:36:24;;;;;;;9.93;5.22;;;;;;;27.74;49.32;100048.34;4915597;29;20439;-87
2021/06/17 10:39:04;;;;;;;8.48;4.70;;;;;;;28.37;48.24;100041.72;4911168;29;20620;-86
2021/06/17 10:42:04;;;;;;;15.20;5.37;;;;;;;28.20;48.12;100052.34;4901951;29;20427;-86
2021/06/17 10:44:36;;;;;;;5.72;4.45;;;;;;;29.00;46.45;100051.13;4915443;29;20028;-87
2021/06/17 10:47:03;;;;;;;8.98;4.18;;;;;;;29.08;45.96;100044.56;4915809;29;20028;-87
2021/06/17 10:49:50;;;;;;;6.28;4.22;;;;;;;29.36;44.90;100053.84;4907409;29;20543;-87
2021/06/17 10:52:29;;;;;;;10.85;5.65;;;;;;;28.83;45.70;100051.03;4895991;29;20028;-87
2021/06/17 10:55:08;;;;;;;11.18;5.72;;;;;;;28.39;46.45;100052.28;4907322;29;20459;-87
2021/06/17 10:57:52;;;;;;;6.90;4.18;;;;;;;29.10;46.22;100053.25;4906888;29;20116;-87
2021/06/17 11:00:28;;;;;;;8.27;4.75;;;;;;;30.04;44.80;100050.44;4897116;29;20547;-86
2021/06/17 11:02:56;;;;;;;9.60;4.05;;;;;;;31.15;42.56;100045.56;4897060;29;20474;-87
2021/06/17 11:05:34;;;;;;;4.68;3.63;;;;;;;30.91;42.09;100047.66;4896870;29;20089;-87
2021/06/17 11:08:16;;;;;;;8.32;3.78;;;;;;;31.10;40.95;100040.06;4896704;29;20055;-87
2021/06/17 11:10:48;;;;;;;6.72;4.00;;;;;;;31.54;40.49;100053.72;4899519;29;20080;-87
2021/06/17 11:13:27;;;;;;;5.70;4.20;;;;;;;32.01;38.75;100036.91;4923138;29;20127;-87
2021/06/17 11:15:53;;;;;;;5.57;3.90;;;;;;;33.12;38.35;100032.75;4915267;29;20028;-87
2021/06/17 11:21:34;;;;;;;10.10;4.28;;;;;;;33.03;36.22;100047.88;4900415;29;20029;-88
2021/06/17 11:24:09;;;;;;;7.68;4.05;;;;;;;33.76;35.16;100048.03;4901076;29;20057;-88
2021/06/17 11:26:39;;;;;;;5.80;3.30;;;;;;;34.11;35.29;100054.66;4914930;29;20028;-88
2021/06/17 11:29:06;;;;;;;4.40;3.03;;;;;;;33.05;36.20;100069.38;4915181;29;20051;-89
2021/06/17 11:31:40;;;;;;;7.68;3.38;;;;;;;32.70;36.21;100085.19;4905033;29;20116;-88
2021/06/17 11:34:10;;;;;;;6.18;2.70;;;;;;;33.05;35.96;100075.63;4896322;29;20037;-88
2021/06/17 11:36:56;;;;;;;4.65;2.80;;;;;;;32.17;37.00;100070.47;4904681;29;20055;-88
2021/06/17 11:39:26;;;;;;;6.45;3.45;;;;;;;31.29;37.95;100075.88;4915020;29;20063;-88